»·PEaware :: VRD5150 KELP-KABQ

VRD5150 :: KELP-KABQ

FLIGHT INFORMATION

Flight Status: Arrived
Operator:
Virgin America
More flights by this operator :: More flights under this callsign
Pilot: Anonymous 17686 (17686)
Aircraft: AIRBUS A320
(A320)
More flights by this aircraft type
Origin: KELP El Paso Intl
United States
Destination: KABQ Albuquerque Intl Sunport
United States
More flights between these airports :: More routes between these airports
Route: +RUTER TCS J13 ABQ
File this flight plan on PilotEdge
Remarks:
Altitude:
(Current/Filed)
38,000ft
Speed:
(Current/Filed)
450kts
Departed: 10-Jan-18 07:32 PM
Arrived: 10-Jan-18 08:17 PM
Distance/Time
Traveled:
195nm/0:45
Distance/Time
To Go:
Arrived

Flight Plot

Page will automatically refresh every two minutes.

Flight plan parsing failed; only flown route is shown


Map Options




Map Legend


Flown Route
Filed Route
Departure Airport
Arrival Airport
Navaid (VOR, NDB)
Fix

Horizontal Profiles

Position Reports

Time Latitude Longitude Heading Altitude Ground
Speed
10-Jan-18 19:08 31.799670 -106.393381 328 3972ft 0kts
10-Jan-18 19:09 31.799670 -106.393381 328 3972ft 0kts
10-Jan-18 19:10 31.799670 -106.393381 328 3972ft 0kts
10-Jan-18 19:11 31.799670 -106.393381 328 3972ft 0kts
10-Jan-18 19:12 31.799670 -106.393381 328 3972ft 0kts
10-Jan-18 19:13 31.799670 -106.393381 328 3972ft 0kts
10-Jan-18 19:14 31.799670 -106.393381 328 3972ft 0kts
10-Jan-18 19:15 31.799670 -106.393381 328 3972ft 0kts
10-Jan-18 19:16 31.799670 -106.393381 328 3972ft 0kts
10-Jan-18 19:17 31.799670 -106.393381 328 3972ft 0kts
10-Jan-18 19:18 31.799670 -106.393381 328 3972ft 0kts
10-Jan-18 19:19 31.799670 -106.393381 328 3972ft 0kts
10-Jan-18 19:20 31.799670 -106.393381 328 3972ft 0kts
10-Jan-18 19:21 31.799660 -106.393373 328 3972ft 0kts
10-Jan-18 19:22 31.799122 -106.392994 328 3972ft 2kts
10-Jan-18 19:23 31.798898 -106.392836 328 3972ft 0kts
10-Jan-18 19:24 31.798898 -106.392836 328 3972ft 0kts
10-Jan-18 19:25 31.798898 -106.392836 328 3972ft 0kts
10-Jan-18 19:26 31.798898 -106.392836 328 3972ft 0kts
10-Jan-18 19:27 31.798898 -106.392836 328 3972ft 0kts
10-Jan-18 19:28 31.798900 -106.392838 328 3972ft 0kts
10-Jan-18 19:29 31.799701 -106.391586 81 3972ft 8kts
10-Jan-18 19:30 31.800135 -106.387586 92 3972ft 16kts
10-Jan-18 19:31 31.799900 -106.381797 92 3972ft 18kts
10-Jan-18 19:32 31.799757 -106.377628 91 3972ft 12kts
10-Jan-18 19:33 31.799504 -106.372117 91 3972ft 11kts
10-Jan-18 19:34 31.799364 -106.366666 93 3972ft 18kts
10-Jan-18 19:35 31.799851 -106.363804 4 3972ft 5kts
10-Jan-18 19:36 31.799862 -106.363803 4 3972ft 0kts
10-Jan-18 19:37 31.799862 -106.363803 4 3972ft 0kts
10-Jan-18 19:38 31.801029 -106.367817 272 3972ft 91kts
10-Jan-18 19:39 31.800922 -106.421955 258 6296ft 191kts
10-Jan-18 19:40 31.761053 -106.453895 180 9567ft 205kts
10-Jan-18 19:41 31.706073 -106.394960 111 10726ft 334kts
10-Jan-18 19:42 31.724571 -106.289843 33 12633ft 359kts
10-Jan-18 19:43 31.808661 -106.283644 317 16018ft 292kts
10-Jan-18 19:44 31.864167 -106.352297 307 18787ft 295kts
10-Jan-18 19:45 31.937109 -106.413536 327 19944ft 351kts
10-Jan-18 19:46 32.024324 -106.467862 325 22061ft 357kts
10-Jan-18 19:47 32.112782 -106.524192 326 23927ft 365kts
10-Jan-18 19:48 32.203324 -106.581981 327 25548ft 375kts
10-Jan-18 19:49 32.297348 -106.642086 326 26752ft 392kts
10-Jan-18 19:50 32.394082 -106.703989 326 28196ft 399kts
10-Jan-18 19:51 32.492581 -106.767263 327 29523ft 405kts
10-Jan-18 19:52 32.589923 -106.829949 327 29947ft 397kts
10-Jan-18 19:53 32.683059 -106.897757 313 29933ft 385kts
10-Jan-18 19:54 32.738427 -107.001921 300 29948ft 385kts
10-Jan-18 19:55 32.823887 -107.074465 335 29923ft 393kts
10-Jan-18 19:56 32.926722 -107.119444 334 29944ft 392kts
10-Jan-18 19:57 33.028900 -107.165682 335 29893ft 394kts
10-Jan-18 19:58 33.131331 -107.211960 335 29888ft 394kts
10-Jan-18 19:59 33.234528 -107.258640 335 29879ft 396kts
10-Jan-18 20:00 33.345249 -107.265554 6 29847ft 419kts
10-Jan-18 20:01 33.458605 -107.234544 5 29348ft 405kts
10-Jan-18 20:02 33.568725 -107.206415 7 26920ft 406kts
10-Jan-18 20:03 33.678928 -107.177705 7 26224ft 404kts
10-Jan-18 20:04 33.786453 -107.149568 7 25224ft 377kts
10-Jan-18 20:05 33.887389 -107.123320 7 24229ft 369kts
10-Jan-18 20:06 33.987307 -107.097105 7 23230ft 362kts
10-Jan-18 20:07 34.080488 -107.072552 7 22231ft 331kts
10-Jan-18 20:08 34.169428 -107.049183 7 21234ft 323kts
10-Jan-18 20:09 34.253511 -107.027014 6 19785ft 313kts
10-Jan-18 20:10 34.337242 -107.004930 6 18000ft 303kts
10-Jan-18 20:11 34.418553 -106.983385 5 16286ft 294kts
10-Jan-18 20:12 34.497517 -106.962379 5 14646ft 287kts
10-Jan-18 20:13 34.574651 -106.941901 4 13024ft 280kts
10-Jan-18 20:14 34.650176 -106.921734 4 11337ft 275kts
10-Jan-18 20:15 34.726061 -106.901541 5 11013ft 280kts
10-Jan-18 20:16 34.801739 -106.881331 7 9784ft 281kts
10-Jan-18 20:17 34.878363 -106.860743 8 8042ft 281kts
10-Jan-18 20:18 34.947096 -106.842324 9 8008ft 240kts
10-Jan-18 20:19 34.997897 -106.789877 48 8009ft 247kts
10-Jan-18 20:20 35.038451 -106.727468 55 7472ft 222kts
10-Jan-18 20:21 35.044483 -106.653332 88 6039ft 206kts
10-Jan-18 20:22 35.044287 -106.594343 91 5369ft 126kts
10-Jan-18 20:23 35.044226 -106.575759 76 5369ft 6kts
10-Jan-18 20:24 35.045821 -106.578711 269 5369ft 23kts
10-Jan-18 20:25 35.045798 -106.588269 271 5369ft 16kts
10-Jan-18 20:26 35.045812 -106.595750 267 5369ft 27kts
10-Jan-18 20:27 35.045708 -106.602243 267 5369ft 19kts
10-Jan-18 20:28 35.046160 -106.603834 358 5369ft 7kts
10-Jan-18 20:29 35.048467 -106.603365 41 5369ft 10kts

Navigation Log

Ident Type
Flight plan parsing failed, navigation log unavailable